createdAt,value
2023-02-13T03:18:22.151Z,7.30
2023-02-13T03:21:30.841Z,7.30
2023-02-13T03:24:24.889Z,7.30
2023-02-13T03:27:11.110Z,7.20
2023-02-13T03:30:11.917Z,7.20
2023-02-13T03:33:12.476Z,7.20
2023-02-13T03:36:19.282Z,7.20
2023-02-13T03:39:07.974Z,7.20
2023-02-13T03:41:53.431Z,7.10
2023-02-13T03:44:39.222Z,7.10
2023-02-13T03:47:18.432Z,7.10
2023-02-13T03:50:09.465Z,7.10
2023-02-13T03:52:56.115Z,7.10
2023-02-13T03:55:57.851Z,7.06
2023-02-13T03:58:59.558Z,7.08
2023-02-13T04:01:39.134Z,7.02
2023-02-13T04:04:27.905Z,7.00
2023-02-13T04:07:10.338Z,7.00
2023-02-13T04:09:50.997Z,7.00
2023-02-13T04:12:36.467Z,7.00
2023-02-13T04:15:40.762Z,7.00
2023-02-13T04:18:22.208Z,7.00
2023-02-13T04:20:59.382Z,7.00
2023-02-13T04:23:38.131Z,7.00
2023-02-13T04:26:24.700Z,7.00
2023-02-13T04:29:02.205Z,7.00
2023-02-13T04:31:39.991Z,6.90
2023-02-13T04:34:16.885Z,6.90
2023-02-13T04:36:54.280Z,6.90
2023-02-13T04:39:31.457Z,6.80
2023-02-13T04:42:08.759Z,6.80
2023-02-13T04:44:46.164Z,6.80
2023-02-13T04:47:24.055Z,6.70
2023-02-13T04:50:01.396Z,6.70
2023-02-13T04:52:38.586Z,6.70
2023-02-13T04:55:16.824Z,6.70
2023-02-13T04:57:54.919Z,6.68
2023-02-13T05:00:35.165Z,6.62
2023-02-13T05:03:15.164Z,6.60
2023-02-13T05:05:52.565Z,6.60
2023-02-13T05:08:29.144Z,6.60
2023-02-13T05:11:05.759Z,6.60
2023-02-13T05:13:41.756Z,6.60
2023-02-13T05:16:19.457Z,6.60
2023-02-13T05:18:56.852Z,6.60
2023-02-13T05:21:50.236Z,6.60
2023-02-13T05:24:26.765Z,6.60
2023-02-13T05:27:04.531Z,6.60
2023-02-13T05:29:41.895Z,6.60
2023-02-13T05:32:19.092Z,6.58
2023-02-13T05:34:56.925Z,6.52
2023-02-13T05:37:33.840Z,6.50
2023-02-13T05:40:14.379Z,6.44
2023-02-13T05:42:51.299Z,6.40
2023-02-13T05:45:28.932Z,6.30
2023-02-13T05:48:06.321Z,6.20
2023-02-13T05:50:43.962Z,6.20
2023-02-13T05:53:21.640Z,6.10
2023-02-13T05:55:58.640Z,6.10
2023-02-13T05:58:36.157Z,6.10
2023-02-13T06:01:14.027Z,6.02
2023-02-13T06:03:51.415Z,6.00
2023-02-13T06:06:28.145Z,5.90
2023-02-13T06:09:05.511Z,5.80
2023-02-13T06:11:42.003Z,5.70
2023-02-13T06:14:19.043Z,5.60
2023-02-13T06:16:55.864Z,5.60
2023-02-13T06:19:33.017Z,5.50
2023-02-13T06:22:10.543Z,5.50
2023-02-13T06:24:47.560Z,5.40
2023-02-13T06:27:25.904Z,5.30
2023-02-13T06:30:03.224Z,5.30
2023-02-13T06:32:39.804Z,5.22
2023-02-13T06:35:18.219Z,5.20
2023-02-13T06:37:54.595Z,5.20
2023-02-13T06:40:32.086Z,5.18
2023-02-13T06:43:09.608Z,5.10
2023-02-13T06:45:47.032Z,5.16
2023-02-13T06:48:28.400Z,5.20
2023-02-13T06:51:06.827Z,5.30
2023-02-13T06:53:43.599Z,5.40
2023-02-13T06:56:20.290Z,5.40
2023-02-13T06:58:56.846Z,5.50
2023-02-13T07:01:35.289Z,5.60
2023-02-13T07:04:12.745Z,5.60
2023-02-13T07:06:49.891Z,5.70
2023-02-13T07:09:27.701Z,5.80
2023-02-13T07:12:07.047Z,5.80
2023-02-13T07:14:43.335Z,5.90
2023-02-13T07:17:20.422Z,6.00
2023-02-13T07:19:57.614Z,6.02
2023-02-13T07:22:35.864Z,6.10
2023-02-13T07:25:13.968Z,6.20
2023-02-13T07:27:50.688Z,6.20
2023-02-13T07:30:29.156Z,6.20
2023-02-13T07:33:08.735Z,6.20
2023-02-13T07:35:51.129Z,6.20
2023-02-13T07:38:28.340Z,6.26
2023-02-13T07:41:06.714Z,6.30
2023-02-13T07:43:43.250Z,6.40
2023-02-13T07:46:21.210Z,6.50
2023-02-13T07:48:59.127Z,6.50
2023-02-13T07:51:35.807Z,6.60
2023-02-13T07:54:12.486Z,6.72
2023-02-13T07:56:49.728Z,6.80
2023-02-13T07:59:27.187Z,6.94
2023-02-13T08:02:04.203Z,7.08
2023-02-13T08:04:42.205Z,7.20
2023-02-13T08:07:19.691Z,7.30
2023-02-13T08:10:13.574Z,7.40
2023-02-13T08:12:50.650Z,7.60
2023-02-13T08:15:28.597Z,7.70
2023-02-13T08:18:05.641Z,7.80
2023-02-13T08:20:42.517Z,7.90
2023-02-13T08:23:18.955Z,8.00
2023-02-13T08:25:56.470Z,8.10
2023-02-13T08:28:33.837Z,8.20
2023-02-13T08:31:15.055Z,8.30
2023-02-13T08:33:51.926Z,8.40
2023-02-13T08:36:29.029Z,8.50
2023-02-13T08:39:05.861Z,8.60
2023-02-13T08:41:42.533Z,8.70
2023-02-13T08:44:19.656Z,8.78
2023-02-13T08:46:56.522Z,8.80
2023-02-13T08:49:33.113Z,8.90
2023-02-13T08:52:10.593Z,8.90
2023-02-13T08:54:48.007Z,9.00
2023-02-13T08:57:25.400Z,9.00
2023-02-13T09:00:02.615Z,9.00
2023-02-13T09:02:40.081Z,9.10
2023-02-13T09:05:17.696Z,9.20
2023-02-13T09:07:55.077Z,9.30
2023-02-13T09:10:32.526Z,9.40
2023-02-13T09:13:09.792Z,9.50
2023-02-13T09:15:47.943Z,9.60
2023-02-13T09:18:25.093Z,9.60
2023-02-13T09:21:09.890Z,9.70
2023-02-13T09:23:46.516Z,9.80
2023-02-13T09:26:24.271Z,9.90
2023-02-13T09:29:00.161Z,10.00
2023-02-13T09:31:36.495Z,10.10
2023-02-13T09:34:12.924Z,10.20
2023-02-13T09:36:49.111Z,10.30
2023-02-13T09:39:25.269Z,10.32
2023-02-13T09:42:03.248Z,10.40
2023-02-13T09:44:46.024Z,10.50
2023-02-13T09:47:32.203Z,10.58
2023-02-13T09:50:16.983Z,10.70
2023-02-13T09:52:57.130Z,10.72
2023-02-13T09:55:53.237Z,10.84
2023-02-13T09:58:45.340Z,10.90
2023-02-13T10:01:31.811Z,11.00
2023-02-13T10:04:43.957Z,11.10
2023-02-13T10:07:37.406Z,11.20
2023-02-13T10:10:31.229Z,11.20
2023-02-13T10:13:30.605Z,11.30
2023-02-13T10:16:16.211Z,11.40
2023-02-13T10:19:00.636Z,11.50
2023-02-13T10:21:44.586Z,11.50
2023-02-13T10:24:34.710Z,11.60
2023-02-13T10:27:25.192Z,11.70
2023-02-13T10:30:12.958Z,11.70
2023-02-13T10:33:21.229Z,11.80
2023-02-13T10:36:05.197Z,11.90
2023-02-13T10:38:46.842Z,11.96
2023-02-13T10:41:44.807Z,12.00
2023-02-13T10:44:48.879Z,12.12
2023-02-13T10:47:47.391Z,12.20
2023-02-13T10:50:32.589Z,12.30
2023-02-13T10:53:26.570Z,12.40
2023-02-13T10:56:27.854Z,12.40
2023-02-13T10:59:33.798Z,12.50
2023-02-13T11:02:30.241Z,12.50
2023-02-13T11:05:20.537Z,12.60
2023-02-13T11:07:58.477Z,12.70
2023-02-13T11:10:36.212Z,12.70
2023-02-13T11:13:24.106Z,12.80
2023-02-13T11:16:10.695Z,12.80
2023-02-13T11:18:54.995Z,12.90
2023-02-13T11:21:42.669Z,12.92
2023-02-13T11:24:29.463Z,13.00
2023-02-13T11:27:14.007Z,13.10
2023-02-13T11:30:04.400Z,13.10
2023-02-13T11:32:42.129Z,13.20
2023-02-13T11:35:37.899Z,13.20
2023-02-13T11:38:30.456Z,13.30
2023-02-13T11:41:16.336Z,13.30
2023-02-13T11:44:01.887Z,13.30
2023-02-13T11:46:53.807Z,13.40
2023-02-13T11:49:32.688Z,13.40
2023-02-13T11:52:15.372Z,13.40
2023-02-13T11:55:05.002Z,13.50
2023-02-13T11:57:44.087Z,13.50
2023-02-13T12:00:42.808Z,13.60
2023-02-13T12:03:36.536Z,13.60
2023-02-13T12:06:18.675Z,13.70
2023-02-13T12:08:57.434Z,13.70
2023-02-13T12:11:44.823Z,13.70
2023-02-13T12:14:26.586Z,13.64
2023-02-13T12:17:07.108Z,13.66
2023-02-13T12:19:49.799Z,13.60
2023-02-13T12:22:49.740Z,13.68
2023-02-13T12:25:51.238Z,13.62
2023-02-13T12:32:00.675Z,13.70
2023-02-13T12:35:04.299Z,13.70
2023-02-13T12:37:59.372Z,13.72
2023-02-13T12:41:05.239Z,13.80
2023-02-13T12:44:25.930Z,13.80
2023-02-13T12:47:18.577Z,13.80
2023-02-13T12:50:45.964Z,13.80
2023-02-13T12:53:57.718Z,13.80
2023-02-13T12:57:01.938Z,13.80
2023-02-13T13:00:07.409Z,13.82
2023-02-13T13:03:24.984Z,13.90
2023-02-13T13:06:22.377Z,13.90
2023-02-13T13:09:22.591Z,13.90
2023-02-13T13:12:16.783Z,13.90
2023-02-13T13:15:04.856Z,13.90
2023-02-13T13:18:01.384Z,13.90
2023-02-13T13:21:08.283Z,13.94
2023-02-13T13:23:53.876Z,13.90
2023-02-13T13:26:41.983Z,13.90
2023-02-13T13:29:28.178Z,13.90
2023-02-13T13:32:09.082Z,14.00
2023-02-13T13:34:47.918Z,14.00
2023-02-13T13:37:37.918Z,14.00
2023-02-13T13:40:43.416Z,14.00
2023-02-13T13:43:35.453Z,14.00
2023-02-13T13:46:30.109Z,14.00
2023-02-13T13:49:29.137Z,14.04
2023-02-13T13:52:28.614Z,14.10
2023-02-13T13:55:07.021Z,14.10
2023-02-13T13:58:05.827Z,14.10
2023-02-13T14:00:45.017Z,14.10
2023-02-13T14:03:41.765Z,14.08
2023-02-13T14:06:21.931Z,14.00
2023-02-13T14:09:35.616Z,14.00
2023-02-13T14:12:52.455Z,14.00
2023-02-13T14:15:57.554Z,14.00
2023-02-13T14:18:35.218Z,14.00
2023-02-13T14:21:12.945Z,14.00
2023-02-13T14:23:57.575Z,14.04
2023-02-13T14:26:44.078Z,14.04
2023-02-13T14:29:37.821Z,14.00
2023-02-13T14:32:36.570Z,14.00
2023-02-13T14:35:27.384Z,14.00
2023-02-13T14:38:08.517Z,14.00
2023-02-13T14:41:01.160Z,14.00
2023-02-13T14:43:58.669Z,14.00
2023-02-13T14:46:44.602Z,14.00
2023-02-13T14:49:28.089Z,13.98
2023-02-13T14:52:07.160Z,13.96
2023-02-13T14:54:52.451Z,14.00
2023-02-13T14:57:36.920Z,14.00
2023-02-13T15:00:27.710Z,14.00
2023-02-13T15:03:13.948Z,13.94
2023-02-13T15:05:57.340Z,13.90
2023-02-13T15:08:40.553Z,13.90
2023-02-13T15:11:38.211Z,13.90
2023-02-13T15:14:32.886Z,13.90
2023-02-13T15:17:20.146Z,13.90
2023-02-13T15:19:58.405Z,13.84
2023-02-13T15:22:41.789Z,13.80
2023-02-13T15:25:34.306Z,13.72
2023-02-13T15:28:21.303Z,13.80
2023-02-13T15:31:08.527Z,13.78
2023-02-13T15:37:43.339Z,13.60
2023-02-13T15:40:33.278Z,13.60
2023-02-13T15:43:25.879Z,13.60
2023-02-13T15:46:08.046Z,13.60
2023-02-13T15:48:46.070Z,13.50
2023-02-13T15:51:28.987Z,13.50
2023-02-13T15:54:10.835Z,13.46
2023-02-13T15:56:54.406Z,13.40
2023-02-13T15:59:37.892Z,13.40
2023-02-13T16:02:26.716Z,13.30
2023-02-13T16:05:04.564Z,13.30
2023-02-13T16:07:57.714Z,13.20
2023-02-13T16:10:37.434Z,13.20
2023-02-13T16:13:22.488Z,13.10
2023-02-13T16:15:59.377Z,13.04
2023-02-13T16:18:36.042Z,13.00
2023-02-13T16:23:48.453Z,12.90
2023-02-13T16:26:25.930Z,12.90
2023-02-13T16:29:02.839Z,12.80
2023-02-13T16:31:42.689Z,12.80
2023-02-13T16:34:35.620Z,12.70
2023-02-13T16:37:32.272Z,12.70
2023-02-13T16:40:52.979Z,12.60
2023-02-13T16:43:51.875Z,12.50
2023-02-13T16:46:55.848Z,12.50
2023-02-13T16:49:36.832Z,12.40
2023-02-13T16:52:23.449Z,12.30
2023-02-13T16:55:04.696Z,12.30
2023-02-13T16:57:42.180Z,12.20
2023-02-13T17:00:28.412Z,12.10
2023-02-13T17:03:11.447Z,12.10
2023-02-13T17:05:47.896Z,12.00
2023-02-13T17:08:24.493Z,11.90
2023-02-13T17:11:19.825Z,11.80
2023-02-13T17:13:57.207Z,11.70
2023-02-13T17:16:34.601Z,11.50
2023-02-13T17:19:11.448Z,11.30
2023-02-13T17:21:48.702Z,11.16
2023-02-13T17:24:26.388Z,11.00
2023-02-13T17:27:03.668Z,10.88
2023-02-13T17:29:40.377Z,10.70
2023-02-13T17:32:23.078Z,10.60
2023-02-13T17:34:59.749Z,10.50
2023-02-13T17:37:37.212Z,10.40
2023-02-13T17:40:23.059Z,10.30
2023-02-13T17:43:02.157Z,10.20
2023-02-13T17:45:39.413Z,10.10
2023-02-13T17:48:15.465Z,10.00
2023-02-13T17:50:52.867Z,9.90
2023-02-13T17:53:33.518Z,9.84
2023-02-13T17:56:10.155Z,9.80
2023-02-13T17:58:47.441Z,9.70
2023-02-13T18:01:24.738Z,9.70
2023-02-13T18:04:01.865Z,9.60
2023-02-13T18:06:38.178Z,9.60
2023-02-13T18:09:15.040Z,9.50
2023-02-13T18:12:05.103Z,9.50
2023-02-13T18:14:42.579Z,9.40
2023-02-13T18:17:22.422Z,9.32
2023-02-13T18:20:00.850Z,9.30
2023-02-13T18:22:38.983Z,9.20
2023-02-13T18:25:17.606Z,9.20
2023-02-13T18:27:55.686Z,9.20
2023-02-13T18:30:33.156Z,9.10
2023-02-13T18:33:10.355Z,9.10
2023-02-13T18:35:47.194Z,9.04
2023-02-13T18:38:23.988Z,9.00
2023-02-13T18:41:00.798Z,9.00
2023-02-13T18:43:37.612Z,9.00
2023-02-13T18:46:15.396Z,8.90
2023-02-13T18:48:52.287Z,8.90
2023-02-13T18:51:29.533Z,8.88
2023-02-13T18:54:06.136Z,8.80
2023-02-13T18:56:43.676Z,8.80
2023-02-13T18:59:21.235Z,8.80
2023-02-13T19:01:58.412Z,8.70
2023-02-13T19:04:37.392Z,8.70
2023-02-13T19:07:14.529Z,8.60
2023-02-13T19:09:51.597Z,8.60
2023-02-13T19:12:27.560Z,8.60
2023-02-13T19:15:04.335Z,8.60
2023-02-13T19:17:42.577Z,8.60
2023-02-13T19:20:21.083Z,8.60
2023-02-13T19:23:01.844Z,8.50
2023-02-13T19:25:40.200Z,8.50
2023-02-13T19:28:17.746Z,8.40
2023-02-13T19:30:55.246Z,8.40
2023-02-13T19:33:31.421Z,8.40
2023-02-13T19:36:14.233Z,8.40
2023-02-13T19:38:56.094Z,8.30
2023-02-13T19:41:33.217Z,8.30
2023-02-13T19:44:09.612Z,8.30
2023-02-13T19:46:46.712Z,8.30
2023-02-13T19:49:25.011Z,8.28
2023-02-13T19:52:02.058Z,8.20
2023-02-13T19:54:38.925Z,8.20
2023-02-13T19:57:16.222Z,8.20
2023-02-13T19:59:53.381Z,8.20
2023-02-13T20:02:29.932Z,8.18
2023-02-13T20:05:08.895Z,8.20
2023-02-13T20:07:45.829Z,8.18
2023-02-13T20:10:23.263Z,8.10
2023-02-13T20:12:59.091Z,8.10
2023-02-13T20:15:36.129Z,8.10
2023-02-13T20:18:14.261Z,8.10
2023-02-13T20:20:50.953Z,8.10
2023-02-13T20:23:28.112Z,8.10
2023-02-13T20:26:07.728Z,8.00
2023-02-13T20:28:43.744Z,8.00
2023-02-13T20:31:23.686Z,8.00
2023-02-13T20:34:05.306Z,8.00
2023-02-13T20:36:42.699Z,7.98
2023-02-13T20:39:20.149Z,7.90
2023-02-13T20:41:57.398Z,7.90
2023-02-13T20:44:34.446Z,7.90
2023-02-13T20:47:11.908Z,7.90
2023-02-13T20:49:48.580Z,7.90
2023-02-13T20:52:25.973Z,7.80
2023-02-13T20:55:07.896Z,7.80
2023-02-13T20:57:47.186Z,7.80
2023-02-13T21:00:28.271Z,7.76
2023-02-13T21:03:05.245Z,7.70
2023-02-13T21:05:42.897Z,7.70
2023-02-13T21:08:21.284Z,7.70
2023-02-13T21:11:03.842Z,7.70
2023-02-13T21:13:41.333Z,7.70
2023-02-13T21:16:19.799Z,7.62
2023-02-13T21:19:00.484Z,7.60
2023-02-13T21:21:39.342Z,7.60
2023-02-13T21:24:18.490Z,7.60
2023-02-13T21:26:57.041Z,7.60
2023-02-13T21:29:34.835Z,7.60
2023-02-13T21:32:12.600Z,7.60
2023-02-13T21:34:49.191Z,7.60
2023-02-13T21:37:26.280Z,7.50
2023-02-13T21:40:02.064Z,7.50
2023-02-13T21:42:38.480Z,7.50
2023-02-13T21:45:16.468Z,7.50
2023-02-13T21:47:53.235Z,7.50
2023-02-13T21:50:29.712Z,7.46
2023-02-13T21:53:06.084Z,7.40
2023-02-13T21:55:42.985Z,7.40
2023-02-13T21:58:19.396Z,7.40
2023-02-13T22:00:57.066Z,7.40
2023-02-13T22:03:34.246Z,7.40
2023-02-13T22:06:12.508Z,7.40
2023-02-13T22:08:49.470Z,7.40
2023-02-13T22:11:26.674Z,7.30
2023-02-13T22:14:05.617Z,7.30
2023-02-13T22:16:42.794Z,7.30
2023-02-13T22:19:21.253Z,7.20
2023-02-13T22:21:57.904Z,7.20
2023-02-13T22:24:35.256Z,7.20
2023-02-13T22:27:12.669Z,7.18
2023-02-13T22:29:50.217Z,7.20
2023-02-13T22:32:28.288Z,7.18
2023-02-13T22:35:06.012Z,7.14
2023-02-13T22:37:43.066Z,7.10
2023-02-13T22:40:22.052Z,7.10
2023-02-13T22:42:59.225Z,7.10
2023-02-13T22:45:37.467Z,7.10
2023-02-13T22:48:16.596Z,7.10
2023-02-13T22:50:53.094Z,7.10
2023-02-13T22:53:29.542Z,7.10
2023-02-13T22:56:07.886Z,7.08
2023-02-13T22:58:44.595Z,7.08
2023-02-13T23:01:22.686Z,7.02
2023-02-13T23:03:59.883Z,7.00
2023-02-13T23:06:36.700Z,7.00
2023-02-13T23:09:13.401Z,7.00
2023-02-13T23:12:06.390Z,7.00
2023-02-13T23:14:43.269Z,6.96
2023-02-13T23:17:45.536Z,6.96
2023-02-13T23:20:23.940Z,6.94
2023-02-13T23:23:00.422Z,6.92
2023-02-13T23:25:37.223Z,6.90
2023-02-13T23:28:14.320Z,6.90
2023-02-13T23:30:51.266Z,6.90
2023-02-13T23:33:28.612Z,6.90
2023-02-13T23:36:05.045Z,6.90
2023-02-13T23:38:41.406Z,6.90
2023-02-13T23:41:18.459Z,6.90
2023-02-13T23:43:56.089Z,6.90
2023-02-13T23:46:33.589Z,6.90
2023-02-13T23:49:10.324Z,6.90
2023-02-13T23:51:47.329Z,6.90
2023-02-13T23:54:24.779Z,6.90
2023-02-13T23:57:01.970Z,6.90
2023-02-13T23:59:38.938Z,6.90
